UAL2310 KSMF-KLAS
Flight info
| Callsign | UAL2310 |
|---|---|
| Flight time | N/A |
| Altitude | 35000 |
| Route | SCTWN4 SHUFL TQILA COKTL4 |
| Aircraft | B38M/M-SDE1FGHILORVWXY/HB1 |
Departure
| Time | 2026-05-07 04:04 |
|---|---|
| Airport | Sacramento International Airport (KSMF) |
Arrival
| Time | N/A |
|---|---|
| Airport | Harry Reid International Airport (KLAS) |
| Time | Latitude | Longitude | Altitude | Speed | Heading |
|---|---|---|---|---|---|
| 2026-05-07 03:41 | 38.69403 | -121.58820 | 31 ft | 0 kts | 121° |
| 2026-05-07 03:55 | 38.69411 | -121.58837 | 31 ft | 4 kts | 119° |
| 2026-05-07 03:55 | 38.69423 | -121.58868 | 31 ft | 4 kts | 106° |
| 2026-05-07 03:55 | 38.69424 | -121.58894 | 31 ft | 4 kts | 43° |
| 2026-05-07 03:55 | 38.69420 | -121.58897 | 31 ft | 0 kts | 1° |
| 2026-05-07 03:59 | 38.69469 | -121.58898 | 31 ft | 12 kts | 351° |
| 2026-05-07 03:59 | 38.69572 | -121.58921 | 31 ft | 20 kts | 1° |
| 2026-05-07 03:59 | 38.69686 | -121.58917 | 31 ft | 16 kts | 1° |
| 2026-05-07 04:00 | 38.69770 | -121.59016 | 31 ft | 23 kts | 263° |
| 2026-05-07 04:00 | 38.69770 | -121.59258 | 31 ft | 30 kts | 271° |
| 2026-05-07 04:00 | 38.69774 | -121.59541 | 31 ft | 33 kts | 271° |
| 2026-05-07 04:00 | 38.69776 | -121.59776 | 31 ft | 21 kts | 270° |
| 2026-05-07 04:01 | 38.69878 | -121.59863 | 31 ft | 21 kts | 5° |
| 2026-05-07 04:01 | 38.70013 | -121.59858 | 31 ft | 19 kts | 360° |
| 2026-05-07 04:01 | 38.70147 | -121.59860 | 31 ft | 20 kts | 0° |
| 2026-05-07 04:01 | 38.70295 | -121.59855 | 31 ft | 22 kts | 1° |
| 2026-05-07 04:02 | 38.70456 | -121.59853 | 31 ft | 24 kts | 0° |
| 2026-05-07 04:02 | 38.70626 | -121.59850 | 31 ft | 25 kts | 1° |
| 2026-05-07 04:02 | 38.70716 | -121.59896 | 31 ft | 8 kts | 274° |
| 2026-05-07 04:02 | 38.70722 | -121.59977 | 31 ft | 11 kts | 275° |
| 2026-05-07 04:03 | 38.70716 | -121.60091 | 30 ft | 13 kts | 245° |
| 2026-05-07 04:03 | 38.70701 | -121.60110 | 30 ft | 0 kts | 189° |
| 2026-05-07 04:03 | 38.70611 | -121.60110 | 31 ft | 41 kts | 181° |
| 2026-05-07 04:03 | 38.70135 | -121.60119 | 33 ft | 96 kts | 181° |
| 2026-05-07 04:04 | 38.69303 | -121.60134 | 30 ft | 140 kts | 181° |
| 2026-05-07 04:04 | 38.68251 | -121.60157 | 209 ft | 158 kts | 181° |
| 2026-05-07 04:04 | 38.67177 | -121.60215 | 754 ft | 146 kts | 183° |
| 2026-05-07 04:04 | 38.66183 | -121.60063 | 1404 ft | 153 kts | 158° |
| 2026-05-07 04:05 | 38.65430 | -121.59058 | 1998 ft | 171 kts | 109° |
| 2026-05-07 04:05 | 38.65093 | -121.57463 | 2319 ft | 196 kts | 107° |
| 2026-05-07 04:05 | 38.64783 | -121.55724 | 2661 ft | 208 kts | 101° |
| 2026-05-07 04:05 | 38.64507 | -121.53833 | 2873 ft | 226 kts | 101° |
| 2026-05-07 04:06 | 38.64183 | -121.51779 | 3117 ft | 246 kts | 100° |
| 2026-05-07 04:06 | 38.63830 | -121.49623 | 4003 ft | 259 kts | 99° |
| 2026-05-07 04:06 | 38.63439 | -121.47297 | 4849 ft | 275 kts | 99° |
| 2026-05-07 04:06 | 38.63039 | -121.44884 | 5919 ft | 278 kts | 98° |
| 2026-05-07 04:07 | 38.62675 | -121.42425 | 6924 ft | 285 kts | 99° |
| 2026-05-07 04:07 | 38.62301 | -121.39935 | 7979 ft | 286 kts | 99° |
| 2026-05-07 04:07 | 38.61923 | -121.37431 | 9062 ft | 287 kts | 100° |
| 2026-05-07 04:07 | 38.61544 | -121.34935 | 10189 ft | 286 kts | 101° |
| 2026-05-07 04:08 | 38.61156 | -121.32387 | 10880 ft | 301 kts | 101° |
| 2026-05-07 04:08 | 38.60743 | -121.29677 | 11402 ft | 319 kts | 101° |
| 2026-05-07 04:08 | 38.60309 | -121.26842 | 12042 ft | 331 kts | 101° |
| 2026-05-07 04:08 | 38.59871 | -121.23976 | 12898 ft | 334 kts | 101° |
| 2026-05-07 04:09 | 38.59420 | -121.21040 | 13705 ft | 341 kts | 101° |
| 2026-05-07 04:09 | 38.58959 | -121.18037 | 14012 ft | 345 kts | 101° |
| 2026-05-07 04:09 | 38.58498 | -121.15039 | 14057 ft | 344 kts | 101° |
| 2026-05-07 04:09 | 38.58036 | -121.12042 | 14085 ft | 343 kts | 101° |
| 2026-05-07 04:10 | 38.57573 | -121.09047 | 14086 ft | 343 kts | 101° |
| 2026-05-07 04:10 | 38.57110 | -121.06053 | 14091 ft | 343 kts | 101° |
| 2026-05-07 04:10 | 38.56646 | -121.03063 | 14093 ft | 343 kts | 101° |
| 2026-05-07 04:10 | 38.56187 | -121.00107 | 14096 ft | 343 kts | 101° |
| 2026-05-07 04:11 | 38.55722 | -120.97117 | 14098 ft | 343 kts | 101° |
| 2026-05-07 04:11 | 38.55256 | -120.94124 | 14109 ft | 343 kts | 101° |
| 2026-05-07 04:11 | 38.54789 | -120.91136 | 14131 ft | 343 kts | 101° |
| 2026-05-07 04:11 | 38.54323 | -120.88151 | 14135 ft | 343 kts | 101° |
| 2026-05-07 04:12 | 38.53856 | -120.85170 | 14137 ft | 343 kts | 101° |
| 2026-05-07 04:12 | 38.53388 | -120.82189 | 14140 ft | 342 kts | 101° |
| 2026-05-07 04:12 | 38.52919 | -120.79203 | 14140 ft | 342 kts | 101° |
| 2026-05-07 04:12 | 38.52449 | -120.76222 | 14141 ft | 343 kts | 101° |
| 2026-05-07 04:13 | 38.51983 | -120.73265 | 14526 ft | 345 kts | 101° |
| 2026-05-07 04:13 | 38.51508 | -120.70257 | 15133 ft | 347 kts | 101° |
| 2026-05-07 04:13 | 38.51029 | -120.67228 | 15749 ft | 349 kts | 100° |
| 2026-05-07 04:13 | 38.50544 | -120.64169 | 16393 ft | 353 kts | 100° |
| 2026-05-07 04:14 | 38.50054 | -120.61089 | 17060 ft | 356 kts | 100° |
| 2026-05-07 04:14 | 38.49559 | -120.57975 | 17741 ft | 360 kts | 100° |
| 2026-05-07 04:14 | 38.49057 | -120.54831 | 18432 ft | 363 kts | 99° |
| 2026-05-07 04:14 | 38.48558 | -120.51701 | 19037 ft | 367 kts | 99° |
| 2026-05-07 04:15 | 38.48045 | -120.48497 | 19674 ft | 370 kts | 99° |
| 2026-05-07 04:15 | 38.47528 | -120.45276 | 20308 ft | 372 kts | 99° |
| 2026-05-07 04:15 | 38.47008 | -120.42038 | 20949 ft | 373 kts | 99° |
| 2026-05-07 04:15 | 38.46485 | -120.38784 | 21621 ft | 375 kts | 99° |
| 2026-05-07 04:16 | 38.45959 | -120.35522 | 22298 ft | 376 kts | 99° |
| 2026-05-07 04:16 | 38.45431 | -120.32255 | 22955 ft | 377 kts | 99° |
| 2026-05-07 04:16 | 38.44902 | -120.28981 | 23614 ft | 377 kts | 99° |
| 2026-05-07 04:16 | 38.44371 | -120.25701 | 24176 ft | 378 kts | 99° |
| 2026-05-07 04:17 | 38.43847 | -120.22469 | 24694 ft | 378 kts | 99° |
| 2026-05-07 04:17 | 38.43309 | -120.19186 | 25218 ft | 378 kts | 99° |
| 2026-05-07 04:17 | 38.42763 | -120.15914 | 25753 ft | 378 kts | 99° |
| 2026-05-07 04:17 | 38.42216 | -120.12630 | 26258 ft | 378 kts | 99° |
| 2026-05-07 04:18 | 38.41670 | -120.09349 | 26762 ft | 378 kts | 99° |
| 2026-05-07 04:18 | 38.41124 | -120.06073 | 27246 ft | 378 kts | 99° |
| 2026-05-07 04:18 | 38.40575 | -120.02792 | 27736 ft | 378 kts | 99° |
| 2026-05-07 04:18 | 38.40027 | -119.99517 | 28203 ft | 378 kts | 99° |
| 2026-05-07 04:19 | 38.39477 | -119.96238 | 28669 ft | 378 kts | 99° |
| 2026-05-07 04:19 | 38.38934 | -119.93004 | 29113 ft | 378 kts | 99° |
| 2026-05-07 04:19 | 38.38383 | -119.89728 | 29548 ft | 378 kts | 99° |
| 2026-05-07 04:19 | 38.37831 | -119.86452 | 29991 ft | 378 kts | 99° |
| 2026-05-07 04:20 | 38.37278 | -119.83182 | 30412 ft | 378 kts | 99° |
| 2026-05-07 04:20 | 38.36724 | -119.79904 | 30775 ft | 378 kts | 99° |
| 2026-05-07 04:20 | 38.36169 | -119.76632 | 31094 ft | 378 kts | 99° |
| 2026-05-07 04:21 | 38.35057 | -119.70088 | 31699 ft | 378 kts | 99° |
| 2026-05-07 04:21 | 38.34499 | -119.66809 | 32010 ft | 379 kts | 99° |
| 2026-05-07 04:21 | 38.33946 | -119.63576 | 32289 ft | 379 kts | 99° |
| 2026-05-07 04:21 | 38.33386 | -119.60299 | 32566 ft | 379 kts | 99° |
| 2026-05-07 04:22 | 38.32824 | -119.57020 | 32836 ft | 379 kts | 99° |
| 2026-05-07 04:22 | 38.32261 | -119.53736 | 33095 ft | 380 kts | 99° |
| 2026-05-07 04:22 | 38.31695 | -119.50445 | 33349 ft | 381 kts | 99° |
| 2026-05-07 04:22 | 38.31127 | -119.47146 | 33579 ft | 381 kts | 99° |
| 2026-05-07 04:23 | 38.30557 | -119.43843 | 33810 ft | 382 kts | 99° |
| 2026-05-07 04:23 | 38.29986 | -119.40540 | 34034 ft | 383 kts | 98° |
| 2026-05-07 04:23 | 38.29420 | -119.37273 | 34249 ft | 383 kts | 99° |
| 2026-05-07 04:23 | 38.28845 | -119.33957 | 34421 ft | 384 kts | 99° |
| 2026-05-07 04:24 | 38.28269 | -119.30641 | 34607 ft | 384 kts | 99° |
| 2026-05-07 04:24 | 38.27690 | -119.27312 | 34783 ft | 385 kts | 99° |
| 2026-05-07 04:24 | 38.27109 | -119.23986 | 34945 ft | 385 kts | 99° |
| 2026-05-07 04:24 | 38.26528 | -119.20656 | 35104 ft | 386 kts | 99° |
| 2026-05-07 04:25 | 38.25943 | -119.17316 | 35208 ft | 389 kts | 99° |
| 2026-05-07 04:25 | 38.25351 | -119.13935 | 35201 ft | 395 kts | 99° |
| 2026-05-07 04:25 | 38.24133 | -119.07007 | 35134 ft | 408 kts | 99° |
| 2026-05-07 04:26 | 38.22885 | -118.99934 | 35103 ft | 413 kts | 99° |
| 2026-05-07 04:26 | 38.21626 | -118.92816 | 35127 ft | 412 kts | 99° |
| 2026-05-07 04:27 | 38.20780 | -118.88064 | 35082 ft | 411 kts | 99° |